• Join FlightAware (Why Join?)
  • Login
  • US Flag 
07:22PM EDT


 

Airport Tracker/Info


-or-


 

Live Flight TrackerFlight Track Log ✈ CTL18 ✈ 15-Apr-2013 ✈ KPTK - KMBS

Flight Track Log - Related Links

Times and Time Zones

All times are in EDT time to prevent confusion due to time zone crossing. See the CTL18 flight status page for this flight to view local times or setup timezone preferences in your user account.

Time Position Orientation Groundspeed Altitude Reporting Facility
EDT Latitude Longitude Course Direction KTS MPH feet Rate Location/Type
07:02PM 42.6644 -83.4381 268° West 124 143 1,300  Level Cleveland Center
07:02PM 42.6639 -83.4633 268° West 120 138 1,900 1,140 Climbing Cleveland Center
07:04PM 42.6995 -83.4309 34° Northeast  Level FlightAware Approximate
07:11PM 42.9281 -83.3975 321° Northwest  Level FlightAware Approximate
07:12PM 42.9555 -83.4277 321° Northwest  Level FlightAware Approximate
07:13PM 42.9829 -83.4578 321° Northwest  Level FlightAware Approximate
07:14PM 43.0103 -83.4880 321° Northwest  Level FlightAware Approximate
07:15PM 43.0377 -83.5182 321° Northwest  Level FlightAware Approximate
07:16PM 43.0650 -83.5485 321° Northwest  Level FlightAware Approximate
07:17PM 43.0924 -83.5787 321° Northwest  Level FlightAware Approximate
07:18PM 43.1198 -83.6090 321° Northwest  Level FlightAware Approximate
07:19PM 43.1471 -83.6394 321° Northwest  Level FlightAware Approximate
07:20PM 43.1744 -83.6697 321° Northwest  Level FlightAware Approximate
07:21PM 43.2018 -83.7001 321° Northwest  Level FlightAware Approximate
07:22PM 43.2286 -83.7312 318° Northwest  Level FlightAware Approximate
07:23PM 43.2549 -83.7633 318° Northwest  Level FlightAware Approximate
07:24PM 43.2812 -83.7954 318° Northwest  Level FlightAware Approximate
07:25PM 43.3075 -83.8276 318° Northwest  Level FlightAware Approximate
07:26PM 43.3338 -83.8597 318° Northwest  Level FlightAware Approximate
07:27PM 43.3601 -83.8919 318° Northwest  Level FlightAware Approximate
07:28PM 43.3880 -83.9213 324° Northwest  Level FlightAware Approximate
07:29PM 43.4165 -83.9497 324° Northwest  Level FlightAware Approximate
07:30PM 43.4449 -83.9782 324° Northwest  Level FlightAware Approximate
07:31PM 43.4734 -84.0067 324° Northwest  Level FlightAware Approximate